sensor_id;sensor_type;location;lat;lon;timestamp;temperature;humidity
25951;DHT22;13748;52.240;6.002;2023-06-22T00:00:32;19.50;99.90
25951;DHT22;13748;52.240;6.002;2023-06-22T00:03:23;19.50;99.90
25951;DHT22;13748;52.240;6.002;2023-06-22T00:05:53;19.50;99.90
25951;DHT22;13748;52.240;6.002;2023-06-22T00:08:23;19.30;99.90
25951;DHT22;13748;52.240;6.002;2023-06-22T00:10:57;19.40;99.90
25951;DHT22;13748;52.240;6.002;2023-06-22T00:13:24;19.30;99.90
25951;DHT22;13748;52.240;6.002;2023-06-22T00:15:51;19.30;99.90
25951;DHT22;13748;52.240;6.002;2023-06-22T00:18:18;19.20;99.90
25951;DHT22;13748;52.240;6.002;2023-06-22T00:21:04;19.20;99.90
25951;DHT22;13748;52.240;6.002;2023-06-22T00:23:36;19.20;99.90
25951;DHT22;13748;52.240;6.002;2023-06-22T00:26:08;19.20;99.90
25951;DHT22;13748;52.240;6.002;2023-06-22T00:28:35;19.00;99.90
25951;DHT22;13748;52.240;6.002;2023-06-22T00:31:05;18.90;99.90
25951;DHT22;13748;52.240;6.002;2023-06-22T00:33:38;19.00;99.90
25951;DHT22;13748;52.240;6.002;2023-06-22T00:36:13;18.90;99.90
25951;DHT22;13748;52.240;6.002;2023-06-22T00:38:45;18.90;99.90
25951;DHT22;13748;52.240;6.002;2023-06-22T00:41:12;18.80;99.90
25951;DHT22;13748;52.240;6.002;2023-06-22T00:43:39;18.70;99.90
25951;DHT22;13748;52.240;6.002;2023-06-22T00:46:11;18.70;99.90
25951;DHT22;13748;52.240;6.002;2023-06-22T00:48:38;18.70;99.90
25951;DHT22;13748;52.240;6.002;2023-06-22T00:51:06;18.70;99.90
25951;DHT22;13748;52.240;6.002;2023-06-22T00:53:34;18.50;99.90
25951;DHT22;13748;52.240;6.002;2023-06-22T00:56:02;18.50;99.90
25951;DHT22;13748;52.240;6.002;2023-06-22T00:58:31;18.40;99.90
25951;DHT22;13748;52.240;6.002;2023-06-22T01:00:58;18.30;99.90
25951;DHT22;13748;52.240;6.002;2023-06-22T01:03:27;18.30;99.90
25951;DHT22;13748;52.240;6.002;2023-06-22T01:06:07;18.30;99.90
25951;DHT22;13748;52.240;6.002;2023-06-22T01:08:44;18.20;99.90
25951;DHT22;13748;52.240;6.002;2023-06-22T01:11:16;18.20;99.90
25951;DHT22;13748;52.240;6.002;2023-06-22T01:13:54;18.20;99.90
25951;DHT22;13748;52.240;6.002;2023-06-22T01:16:30;18.20;99.90
25951;DHT22;13748;52.240;6.002;2023-06-22T01:19:20;18.10;99.90
25951;DHT22;13748;52.240;6.002;2023-06-22T01:21:56;18.10;99.90
25951;DHT22;13748;52.240;6.002;2023-06-22T01:24:45;18.00;99.90
25951;DHT22;13748;52.240;6.002;2023-06-22T01:29:56;18.00;99.90
25951;DHT22;13748;52.240;6.002;2023-06-22T01:32:32;18.00;99.90
25951;DHT22;13748;52.240;6.002;2023-06-22T01:35:06;18.00;99.90
25951;DHT22;13748;52.240;6.002;2023-06-22T01:37:36;17.90;99.90
25951;DHT22;13748;52.240;6.002;2023-06-22T01:40:05;17.90;99.90
25951;DHT22;13748;52.240;6.002;2023-06-22T01:42:34;17.90;99.90
25951;DHT22;13748;52.240;6.002;2023-06-22T01:45:02;17.90;99.90
25951;DHT22;13748;52.240;6.002;2023-06-22T01:47:29;17.90;99.90
25951;DHT22;13748;52.240;6.002;2023-06-22T01:49:57;17.80;99.90
25951;DHT22;13748;52.240;6.002;2023-06-22T01:52:24;17.80;99.90
25951;DHT22;13748;52.240;6.002;2023-06-22T01:54:51;17.80;99.90
25951;DHT22;13748;52.240;6.002;2023-06-22T01:57:17;17.70;99.90
25951;DHT22;13748;52.240;6.002;2023-06-22T02:02:16;17.60;99.90
25951;DHT22;13748;52.240;6.002;2023-06-22T02:04:54;17.60;99.90
25951;DHT22;13748;52.240;6.002;2023-06-22T02:07:23;17.60;99.90
25951;DHT22;13748;52.240;6.002;2023-06-22T02:09:51;17.50;99.90
25951;DHT22;13748;52.240;6.002;2023-06-22T02:12:22;17.50;99.90
25951;DHT22;13748;52.240;6.002;2023-06-22T02:14:51;17.40;99.90
25951;DHT22;13748;52.240;6.002;2023-06-22T02:17:18;17.50;99.90
25951;DHT22;13748;52.240;6.002;2023-06-22T02:19:46;17.40;99.90
25951;DHT22;13748;52.240;6.002;2023-06-22T02:22:13;17.40;99.90
25951;DHT22;13748;52.240;6.002;2023-06-22T02:24:44;17.40;99.90
25951;DHT22;13748;52.240;6.002;2023-06-22T02:27:12;17.40;99.90
25951;DHT22;13748;52.240;6.002;2023-06-22T02:29:39;17.20;99.90
25951;DHT22;13748;52.240;6.002;2023-06-22T02:35:16;17.30;99.90
25951;DHT22;13748;52.240;6.002;2023-06-22T02:37:43;17.20;99.90
25951;DHT22;13748;52.240;6.002;2023-06-22T02:40:17;17.20;99.90
25951;DHT22;13748;52.240;6.002;2023-06-22T02:42:47;17.20;99.90
25951;DHT22;13748;52.240;6.002;2023-06-22T02:45:14;17.10;99.90
25951;DHT22;13748;52.240;6.002;2023-06-22T02:47:41;17.10;99.90
25951;DHT22;13748;52.240;6.002;2023-06-22T02:50:27;17.10;99.90
25951;DHT22;13748;52.240;6.002;2023-06-22T02:53:00;17.10;99.90
25951;DHT22;13748;52.240;6.002;2023-06-22T02:55:33;17.10;99.90
25951;DHT22;13748;52.240;6.002;2023-06-22T02:58:02;17.00;99.90
25951;DHT22;13748;52.240;6.002;2023-06-22T03:00:34;17.10;99.90
25951;DHT22;13748;52.240;6.002;2023-06-22T03:03:01;17.00;99.90
25951;DHT22;13748;52.240;6.002;2023-06-22T03:05:28;17.10;99.90
25951;DHT22;13748;52.240;6.002;2023-06-22T03:07:58;17.10;99.90
25951;DHT22;13748;52.240;6.002;2023-06-22T03:10:25;17.10;99.90
25951;DHT22;13748;52.240;6.002;2023-06-22T03:13:05;17.00;99.90
25951;DHT22;13748;52.240;6.002;2023-06-22T03:15:39;17.00;99.90
25951;DHT22;13748;52.240;6.002;2023-06-22T03:18:14;17.00;99.90
25951;DHT22;13748;52.240;6.002;2023-06-22T03:20:48;17.00;99.90
25951;DHT22;13748;52.240;6.002;2023-06-22T03:23:27;17.00;99.90
25951;DHT22;13748;52.240;6.002;2023-06-22T03:26:04;17.00;99.90
25951;DHT22;13748;52.240;6.002;2023-06-22T03:28:40;17.00;99.90
25951;DHT22;13748;52.240;6.002;2023-06-22T03:31:08;16.90;99.90
25951;DHT22;13748;52.240;6.002;2023-06-22T03:33:35;17.00;99.90
25951;DHT22;13748;52.240;6.002;2023-06-22T03:36:09;17.00;99.90
25951;DHT22;13748;52.240;6.002;2023-06-22T03:38:38;17.00;99.90
25951;DHT22;13748;52.240;6.002;2023-06-22T03:41:08;17.00;99.90
25951;DHT22;13748;52.240;6.002;2023-06-22T03:44:11;17.00;99.90
25951;DHT22;13748;52.240;6.002;2023-06-22T03:46:45;17.00;99.90
25951;DHT22;13748;52.240;6.002;2023-06-22T03:49:12;16.90;99.90
25951;DHT22;13748;52.240;6.002;2023-06-22T03:51:39;17.00;99.90
25951;DHT22;13748;52.240;6.002;2023-06-22T03:54:06;17.00;99.90
25951;DHT22;13748;52.240;6.002;2023-06-22T03:56:37;16.90;99.90
25951;DHT22;13748;52.240;6.002;2023-06-22T03:59:05;17.00;99.90
25951;DHT22;13748;52.240;6.002;2023-06-22T04:01:34;17.00;99.90
25951;DHT22;13748;52.240;6.002;2023-06-22T04:04:09;16.90;99.90
25951;DHT22;13748;52.240;6.002;2023-06-22T04:06:36;17.00;99.90
25951;DHT22;13748;52.240;6.002;2023-06-22T04:09:28;17.00;99.90
25951;DHT22;13748;52.240;6.002;2023-06-22T04:12:38;17.00;99.90
25951;DHT22;13748;52.240;6.002;2023-06-22T04:15:07;16.90;99.90
25951;DHT22;13748;52.240;6.002;2023-06-22T04:17:44;17.00;99.90
25951;DHT22;13748;52.240;6.002;2023-06-22T04:20:15;16.90;99.90
25951;DHT22;13748;52.240;6.002;2023-06-22T04:22:49;17.00;99.90
25951;DHT22;13748;52.240;6.002;2023-06-22T04:25:18;17.10;99.90
25951;DHT22;13748;52.240;6.002;2023-06-22T04:27:49;17.10;99.90
25951;DHT22;13748;52.240;6.002;2023-06-22T04:30:19;17.10;99.90
25951;DHT22;13748;52.240;6.002;2023-06-22T04:32:46;17.20;99.90
25951;DHT22;13748;52.240;6.002;2023-06-22T04:35:32;17.30;99.90
25951;DHT22;13748;52.240;6.002;2023-06-22T04:38:05;17.40;99.90
25951;DHT22;13748;52.240;6.002;2023-06-22T04:40:58;17.50;99.90
25951;DHT22;13748;52.240;6.002;2023-06-22T04:43:44;17.60;99.90
25951;DHT22;13748;52.240;6.002;2023-06-22T04:46:24;17.60;99.90
25951;DHT22;13748;52.240;6.002;2023-06-22T04:49:08;17.70;99.90
25951;DHT22;13748;52.240;6.002;2023-06-22T04:52:13;17.80;99.90
25951;DHT22;13748;52.240;6.002;2023-06-22T04:54:57;17.90;99.90
25951;DHT22;13748;52.240;6.002;2023-06-22T04:58:19;18.00;99.90
25951;DHT22;13748;52.240;6.002;2023-06-22T05:00:55;18.20;99.90
25951;DHT22;13748;52.240;6.002;2023-06-22T05:03:32;18.70;99.90
25951;DHT22;13748;52.240;6.002;2023-06-22T05:06:09;18.30;99.90
25951;DHT22;13748;52.240;6.002;2023-06-22T05:09:06;18.90;99.90
25951;DHT22;13748;52.240;6.002;2023-06-22T05:11:58;19.40;99.90
25951;DHT22;13748;52.240;6.002;2023-06-22T05:14:53;18.90;99.90
25951;DHT22;13748;52.240;6.002;2023-06-22T05:17:22;18.90;99.90
25951;DHT22;13748;52.240;6.002;2023-06-22T05:20:16;18.90;99.90
25951;DHT22;13748;52.240;6.002;2023-06-22T05:22:57;19.30;99.90
25951;DHT22;13748;52.240;6.002;2023-06-22T05:26:20;19.50;99.90
25951;DHT22;13748;52.240;6.002;2023-06-22T05:29:29;19.90;99.90
25951;DHT22;13748;52.240;6.002;2023-06-22T05:35:55;21.50;99.90
25951;DHT22;13748;52.240;6.002;2023-06-22T05:42:06;22.80;99.90
25951;DHT22;13748;52.240;6.002;2023-06-22T05:45:06;23.50;99.90
25951;DHT22;13748;52.240;6.002;2023-06-22T05:48:18;24.30;99.90
25951;DHT22;13748;52.240;6.002;2023-06-22T05:58:43;25.00;99.90
25951;DHT22;13748;52.240;6.002;2023-06-22T06:01:29;25.10;99.90
25951;DHT22;13748;52.240;6.002;2023-06-22T06:04:52;25.10;99.90
25951;DHT22;13748;52.240;6.002;2023-06-22T06:07:32;24.90;99.90
25951;DHT22;13748;52.240;6.002;2023-06-22T06:10:08;25.10;99.90
25951;DHT22;13748;52.240;6.002;2023-06-22T06:17:30;25.30;99.90
25951;DHT22;13748;52.240;6.002;2023-06-22T06:36:05;28.50;99.90
25951;DHT22;13748;52.240;6.002;2023-06-22T06:38:48;28.80;99.90
25951;DHT22;13748;52.240;6.002;2023-06-22T06:49:18;29.10;99.90
25951;DHT22;13748;52.240;6.002;2023-06-22T06:52:19;29.40;99.90
25951;DHT22;13748;52.240;6.002;2023-06-22T06:59:23;30.00;99.90
25951;DHT22;13748;52.240;6.002;2023-06-22T07:02:02;30.20;99.90
25951;DHT22;13748;52.240;6.002;2023-06-22T07:09:00;31.00;99.90
25951;DHT22;13748;52.240;6.002;2023-06-22T07:11:38;31.10;99.90
25951;DHT22;13748;52.240;6.002;2023-06-22T07:15:08;31.00;99.90
25951;DHT22;13748;52.240;6.002;2023-06-22T07:22:11;31.10;99.90
25951;DHT22;13748;52.240;6.002;2023-06-22T07:25:10;31.00;99.90
25951;DHT22;13748;52.240;6.002;2023-06-22T07:35:13;31.40;99.90
25951;DHT22;13748;52.240;6.002;2023-06-22T07:37:55;31.70;99.90
25951;DHT22;13748;52.240;6.002;2023-06-22T07:40:48;31.90;99.90
25951;DHT22;13748;52.240;6.002;2023-06-22T07:43:39;32.20;99.90
25951;DHT22;13748;52.240;6.002;2023-06-22T07:46:31;32.30;99.90
25951;DHT22;13748;52.240;6.002;2023-06-22T07:49:02;32.00;99.90
25951;DHT22;13748;52.240;6.002;2023-06-22T07:51:29;31.70;99.90
25951;DHT22;13748;52.240;6.002;2023-06-22T07:54:14;31.40;99.90
25951;DHT22;13748;52.240;6.002;2023-06-22T07:56:44;31.20;99.90
25951;DHT22;13748;52.240;6.002;2023-06-22T07:59:47;30.90;99.90
25951;DHT22;13748;52.240;6.002;2023-06-22T08:02:22;30.60;99.90
25951;DHT22;13748;52.240;6.002;2023-06-22T08:04:57;30.40;99.90
25951;DHT22;13748;52.240;6.002;2023-06-22T08:07:47;30.50;99.90
25951;DHT22;13748;52.240;6.002;2023-06-22T08:10:15;30.60;99.90
25951;DHT22;13748;52.240;6.002;2023-06-22T08:12:44;30.70;99.90
25951;DHT22;13748;52.240;6.002;2023-06-22T08:15:29;30.70;99.90
25951;DHT22;13748;52.240;6.002;2023-06-22T08:17:57;30.60;99.90
25951;DHT22;13748;52.240;6.002;2023-06-22T08:20:24;30.40;99.90
25951;DHT22;13748;52.240;6.002;2023-06-22T08:22:54;30.00;99.90
25951;DHT22;13748;52.240;6.002;2023-06-22T08:25:37;29.80;99.90
25951;DHT22;13748;52.240;6.002;2023-06-22T08:28:06;29.70;99.90
25951;DHT22;13748;52.240;6.002;2023-06-22T08:30:33;29.80;99.90
25951;DHT22;13748;52.240;6.002;2023-06-22T08:33:00;30.10;99.90
25951;DHT22;13748;52.240;6.002;2023-06-22T08:35:32;30.30;99.90
25951;DHT22;13748;52.240;6.002;2023-06-22T08:38:05;30.60;99.90
25951;DHT22;13748;52.240;6.002;2023-06-22T08:40:32;30.70;99.90
25951;DHT22;13748;52.240;6.002;2023-06-22T08:43:01;31.00;99.90
25951;DHT22;13748;52.240;6.002;2023-06-22T08:45:28;31.10;99.90
25951;DHT22;13748;52.240;6.002;2023-06-22T08:47:56;31.40;99.90
25951;DHT22;13748;52.240;6.002;2023-06-22T08:50:27;31.40;99.90
25951;DHT22;13748;52.240;6.002;2023-06-22T08:52:57;31.60;99.90
25951;DHT22;13748;52.240;6.002;2023-06-22T08:55:27;31.50;99.90
25951;DHT22;13748;52.240;6.002;2023-06-22T08:57:54;31.50;99.90
25951;DHT22;13748;52.240;6.002;2023-06-22T09:00:21;31.70;99.90
25951;DHT22;13748;52.240;6.002;2023-06-22T09:02:48;31.60;99.90
25951;DHT22;13748;52.240;6.002;2023-06-22T09:05:15;31.20;99.90
25951;DHT22;13748;52.240;6.002;2023-06-22T09:07:43;31.20;99.90
25951;DHT22;13748;52.240;6.002;2023-06-22T09:10:12;31.10;99.90
25951;DHT22;13748;52.240;6.002;2023-06-22T09:12:39;31.20;99.90
25951;DHT22;13748;52.240;6.002;2023-06-22T09:15:09;31.10;99.90
25951;DHT22;13748;52.240;6.002;2023-06-22T09:17:41;31.10;99.90
25951;DHT22;13748;52.240;6.002;2023-06-22T09:20:09;31.00;99.90
25951;DHT22;13748;52.240;6.002;2023-06-22T09:22:37;31.10;99.90
25951;DHT22;13748;52.240;6.002;2023-06-22T09:25:07;31.30;99.90
25951;DHT22;13748;52.240;6.002;2023-06-22T09:27:34;31.40;99.90
25951;DHT22;13748;52.240;6.002;2023-06-22T09:30:01;31.30;99.90
25951;DHT22;13748;52.240;6.002;2023-06-22T09:32:30;31.10;99.90
25951;DHT22;13748;52.240;6.002;2023-06-22T09:34:57;30.80;99.90
25951;DHT22;13748;52.240;6.002;2023-06-22T09:37:24;30.70;99.90
25951;DHT22;13748;52.240;6.002;2023-06-22T09:39:53;30.50;99.90
25951;DHT22;13748;52.240;6.002;2023-06-22T09:42:21;30.30;99.90
25951;DHT22;13748;52.240;6.002;2023-06-22T09:44:48;30.10;99.90
25951;DHT22;13748;52.240;6.002;2023-06-22T09:47:14;30.10;99.90
25951;DHT22;13748;52.240;6.002;2023-06-22T09:49:41;30.00;99.90
25951;DHT22;13748;52.240;6.002;2023-06-22T09:52:15;30.00;99.90
25951;DHT22;13748;52.240;6.002;2023-06-22T09:54:42;29.80;99.90
25951;DHT22;13748;52.240;6.002;2023-06-22T09:57:09;29.60;99.90
25951;DHT22;13748;52.240;6.002;2023-06-22T09:59:36;29.50;99.90
25951;DHT22;13748;52.240;6.002;2023-06-22T10:02:03;29.40;99.90
25951;DHT22;13748;52.240;6.002;2023-06-22T10:04:31;29.30;99.90
25951;DHT22;13748;52.240;6.002;2023-06-22T10:06:58;29.30;99.90
25951;DHT22;13748;52.240;6.002;2023-06-22T10:09:25;29.20;99.90
25951;DHT22;13748;52.240;6.002;2023-06-22T10:11:54;29.20;99.90
25951;DHT22;13748;52.240;6.002;2023-06-22T10:14:21;29.20;99.90
25951;DHT22;13748;52.240;6.002;2023-06-22T10:16:48;29.10;99.90
25951;DHT22;13748;52.240;6.002;2023-06-22T10:19:15;29.10;99.90
25951;DHT22;13748;52.240;6.002;2023-06-22T10:21:42;29.10;99.90
25951;DHT22;13748;52.240;6.002;2023-06-22T10:24:09;29.10;99.90
25951;DHT22;13748;52.240;6.002;2023-06-22T10:26:36;29.00;99.90
25951;DHT22;13748;52.240;6.002;2023-06-22T10:29:04;29.00;99.90
25951;DHT22;13748;52.240;6.002;2023-06-22T10:31:43;29.00;99.90
25951;DHT22;13748;52.240;6.002;2023-06-22T10:34:10;28.90;99.90
25951;DHT22;13748;52.240;6.002;2023-06-22T10:36:39;28.80;99.90
25951;DHT22;13748;52.240;6.002;2023-06-22T10:39:06;28.80;99.90
25951;DHT22;13748;52.240;6.002;2023-06-22T10:41:33;28.80;99.90
25951;DHT22;13748;52.240;6.002;2023-06-22T10:44:00;28.60;99.90
25951;DHT22;13748;52.240;6.002;2023-06-22T10:46:28;28.50;99.90
25951;DHT22;13748;52.240;6.002;2023-06-22T10:48:55;28.30;99.90
25951;DHT22;13748;52.240;6.002;2023-06-22T10:51:24;28.30;99.90
25951;DHT22;13748;52.240;6.002;2023-06-22T10:53:51;28.20;99.90
25951;DHT22;13748;52.240;6.002;2023-06-22T10:56:18;28.10;99.90
25951;DHT22;13748;52.240;6.002;2023-06-22T10:58:46;28.10;99.90
25951;DHT22;13748;52.240;6.002;2023-06-22T11:01:13;28.10;99.90
25951;DHT22;13748;52.240;6.002;2023-06-22T11:04:00;28.10;99.90
25951;DHT22;13748;52.240;6.002;2023-06-22T11:06:28;28.10;99.90
25951;DHT22;13748;52.240;6.002;2023-06-22T11:08:55;28.10;99.90
25951;DHT22;13748;52.240;6.002;2023-06-22T11:11:42;28.10;99.90
25951;DHT22;13748;52.240;6.002;2023-06-22T11:14:09;28.10;99.90
25951;DHT22;13748;52.240;6.002;2023-06-22T11:16:37;28.00;99.90
25951;DHT22;13748;52.240;6.002;2023-06-22T11:19:05;28.00;99.90
25951;DHT22;13748;52.240;6.002;2023-06-22T11:21:32;27.90;99.90
25951;DHT22;13748;52.240;6.002;2023-06-22T11:23:59;27.90;99.90
25951;DHT22;13748;52.240;6.002;2023-06-22T11:26:26;28.10;99.90
25951;DHT22;13748;52.240;6.002;2023-06-22T11:28:54;28.20;99.90
25951;DHT22;13748;52.240;6.002;2023-06-22T11:31:21;28.40;99.90
25951;DHT22;13748;52.240;6.002;2023-06-22T11:33:53;28.30;99.90
25951;DHT22;13748;52.240;6.002;2023-06-22T11:36:21;28.40;99.90
25951;DHT22;13748;52.240;6.002;2023-06-22T11:38:48;28.60;99.90
25951;DHT22;13748;52.240;6.002;2023-06-22T11:41:17;28.70;99.90
25951;DHT22;13748;52.240;6.002;2023-06-22T11:43:46;28.80;99.90
25951;DHT22;13748;52.240;6.002;2023-06-22T11:46:13;28.80;99.90
25951;DHT22;13748;52.240;6.002;2023-06-22T11:48:40;28.80;99.90
25951;DHT22;13748;52.240;6.002;2023-06-22T11:51:07;28.80;99.90
25951;DHT22;13748;52.240;6.002;2023-06-22T11:53:35;28.70;99.90
25951;DHT22;13748;52.240;6.002;2023-06-22T11:56:02;28.60;99.90
25951;DHT22;13748;52.240;6.002;2023-06-22T11:58:36;28.60;99.90
25951;DHT22;13748;52.240;6.002;2023-06-22T12:01:03;28.40;99.90
25951;DHT22;13748;52.240;6.002;2023-06-22T12:03:32;28.40;99.90
25951;DHT22;13748;52.240;6.002;2023-06-22T12:06:00;28.50;99.90
25951;DHT22;13748;52.240;6.002;2023-06-22T12:08:27;28.50;99.90
25951;DHT22;13748;52.240;6.002;2023-06-22T12:10:57;28.50;99.90
25951;DHT22;13748;52.240;6.002;2023-06-22T12:13:24;28.40;99.90
25951;DHT22;13748;52.240;6.002;2023-06-22T12:15:51;28.30;99.90
25951;DHT22;13748;52.240;6.002;2023-06-22T12:18:19;28.20;99.90
25951;DHT22;13748;52.240;6.002;2023-06-22T12:20:48;28.20;99.90
25951;DHT22;13748;52.240;6.002;2023-06-22T12:23:17;28.20;99.90
25951;DHT22;13748;52.240;6.002;2023-06-22T12:25:48;28.00;99.90
25951;DHT22;13748;52.240;6.002;2023-06-22T12:28:17;27.90;99.90
25951;DHT22;13748;52.240;6.002;2023-06-22T12:30:44;27.90;99.90
25951;DHT22;13748;52.240;6.002;2023-06-22T12:33:11;27.60;99.90
25951;DHT22;13748;52.240;6.002;2023-06-22T12:35:38;27.50;99.90
25951;DHT22;13748;52.240;6.002;2023-06-22T12:38:05;27.40;99.90
25951;DHT22;13748;52.240;6.002;2023-06-22T12:40:35;27.30;99.90
25951;DHT22;13748;52.240;6.002;2023-06-22T12:43:02;27.70;99.90
25951;DHT22;13748;52.240;6.002;2023-06-22T12:45:29;27.20;99.90
25951;DHT22;13748;52.240;6.002;2023-06-22T12:47:58;27.60;99.90
25951;DHT22;13748;52.240;6.002;2023-06-22T12:50:26;27.10;99.90
25951;DHT22;13748;52.240;6.002;2023-06-22T12:52:54;27.00;99.90
25951;DHT22;13748;52.240;6.002;2023-06-22T12:55:21;27.00;99.90
25951;DHT22;13748;52.240;6.002;2023-06-22T12:57:48;26.90;99.90
25951;DHT22;13748;52.240;6.002;2023-06-22T13:00:16;26.80;99.90
25951;DHT22;13748;52.240;6.002;2023-06-22T13:02:43;26.80;99.90
25951;DHT22;13748;52.240;6.002;2023-06-22T13:05:10;26.70;99.90
25951;DHT22;13748;52.240;6.002;2023-06-22T13:07:37;26.60;99.90
25951;DHT22;13748;52.240;6.002;2023-06-22T13:10:05;26.50;99.90
25951;DHT22;13748;52.240;6.002;2023-06-22T13:12:32;26.40;99.90
25951;DHT22;13748;52.240;6.002;2023-06-22T13:14:59;26.30;99.90
25951;DHT22;13748;52.240;6.002;2023-06-22T13:17:26;26.10;99.90
25951;DHT22;13748;52.240;6.002;2023-06-22T13:19:52;26.00;99.90
25951;DHT22;13748;52.240;6.002;2023-06-22T13:22:33;25.80;99.90
25951;DHT22;13748;52.240;6.002;2023-06-22T13:25:07;25.60;99.90
25951;DHT22;13748;52.240;6.002;2023-06-22T13:27:34;25.40;99.90
25951;DHT22;13748;52.240;6.002;2023-06-22T13:32:29;24.90;99.90
25951;DHT22;13748;52.240;6.002;2023-06-22T13:34:56;24.60;99.90
25951;DHT22;13748;52.240;6.002;2023-06-22T13:37:23;24.40;99.90
25951;DHT22;13748;52.240;6.002;2023-06-22T13:39:50;24.30;99.90
25951;DHT22;13748;52.240;6.002;2023-06-22T13:42:17;24.10;99.90
25951;DHT22;13748;52.240;6.002;2023-06-22T13:44:44;23.90;99.90
25951;DHT22;13748;52.240;6.002;2023-06-22T13:47:10;23.70;99.90
25951;DHT22;13748;52.240;6.002;2023-06-22T13:49:37;23.50;99.90
25951;DHT22;13748;52.240;6.002;2023-06-22T13:52:04;23.20;99.90
25951;DHT22;13748;52.240;6.002;2023-06-22T13:54:33;22.90;99.90
25951;DHT22;13748;52.240;6.002;2023-06-22T13:57:02;22.70;99.90
25951;DHT22;13748;52.240;6.002;2023-06-22T13:59:29;22.70;99.90
25951;DHT22;13748;52.240;6.002;2023-06-22T14:01:55;22.60;99.90
25951;DHT22;13748;52.240;6.002;2023-06-22T14:04:25;22.60;99.90
25951;DHT22;13748;52.240;6.002;2023-06-22T14:06:53;22.60;99.90
25951;DHT22;13748;52.240;6.002;2023-06-22T14:09:23;22.50;99.90
25951;DHT22;13748;52.240;6.002;2023-06-22T14:11:50;22.40;99.90
25951;DHT22;13748;52.240;6.002;2023-06-22T14:14:16;22.30;99.90
25951;DHT22;13748;52.240;6.002;2023-06-22T14:16:43;22.20;99.90
25951;DHT22;13748;52.240;6.002;2023-06-22T14:19:10;22.20;99.90
25951;DHT22;13748;52.240;6.002;2023-06-22T14:21:37;22.10;99.90
25951;DHT22;13748;52.240;6.002;2023-06-22T14:24:04;22.10;99.90
25951;DHT22;13748;52.240;6.002;2023-06-22T14:26:31;22.10;99.90
25951;DHT22;13748;52.240;6.002;2023-06-22T14:28:58;22.00;99.90
25951;DHT22;13748;52.240;6.002;2023-06-22T14:31:25;22.10;99.90
25951;DHT22;13748;52.240;6.002;2023-06-22T14:33:52;21.90;99.90
25951;DHT22;13748;52.240;6.002;2023-06-22T14:36:19;21.80;99.90
25951;DHT22;13748;52.240;6.002;2023-06-22T14:38:46;21.80;99.90
25951;DHT22;13748;52.240;6.002;2023-06-22T14:41:13;21.90;99.90
25951;DHT22;13748;52.240;6.002;2023-06-22T14:43:45;21.90;99.90
25951;DHT22;13748;52.240;6.002;2023-06-22T14:46:19;21.80;99.90
25951;DHT22;13748;52.240;6.002;2023-06-22T14:48:47;22.00;99.90
25951;DHT22;13748;52.240;6.002;2023-06-22T14:51:14;22.00;99.90
25951;DHT22;13748;52.240;6.002;2023-06-22T14:53:44;22.10;99.90
25951;DHT22;13748;52.240;6.002;2023-06-22T14:56:12;22.10;99.90
25951;DHT22;13748;52.240;6.002;2023-06-22T14:58:41;22.20;99.90
25951;DHT22;13748;52.240;6.002;2023-06-22T15:01:13;22.20;99.90
25951;DHT22;13748;52.240;6.002;2023-06-22T15:03:40;22.20;99.90
25951;DHT22;13748;52.240;6.002;2023-06-22T15:06:08;22.10;99.90
25951;DHT22;13748;52.240;6.002;2023-06-22T15:08:39;22.00;99.90
25951;DHT22;13748;52.240;6.002;2023-06-22T15:11:06;22.00;99.90
25951;DHT22;13748;52.240;6.002;2023-06-22T15:13:34;21.90;99.90
25951;DHT22;13748;52.240;6.002;2023-06-22T15:16:02;21.90;99.90
25951;DHT22;13748;52.240;6.002;2023-06-22T15:18:32;21.80;99.90
25951;DHT22;13748;52.240;6.002;2023-06-22T15:21:03;21.70;99.90
25951;DHT22;13748;52.240;6.002;2023-06-22T15:23:31;21.70;99.90
25951;DHT22;13748;52.240;6.002;2023-06-22T15:26:00;21.70;99.90
25951;DHT22;13748;52.240;6.002;2023-06-22T15:28:28;21.60;99.90
25951;DHT22;13748;52.240;6.002;2023-06-22T15:30:55;21.60;99.90
25951;DHT22;13748;52.240;6.002;2023-06-22T15:33:24;21.50;99.90
25951;DHT22;13748;52.240;6.002;2023-06-22T15:35:51;21.50;99.90
25951;DHT22;13748;52.240;6.002;2023-06-22T15:38:19;21.70;99.90
25951;DHT22;13748;52.240;6.002;2023-06-22T15:40:46;21.40;99.90
25951;DHT22;13748;52.240;6.002;2023-06-22T15:43:13;21.50;99.90
25951;DHT22;13748;52.240;6.002;2023-06-22T15:45:40;21.50;99.90
25951;DHT22;13748;52.240;6.002;2023-06-22T15:48:07;21.50;99.90
25951;DHT22;13748;52.240;6.002;2023-06-22T15:50:34;21.50;99.90
25951;DHT22;13748;52.240;6.002;2023-06-22T15:53:01;21.50;99.90
25951;DHT22;13748;52.240;6.002;2023-06-22T15:55:27;21.50;99.90
25951;DHT22;13748;52.240;6.002;2023-06-22T15:57:57;21.50;99.90
25951;DHT22;13748;52.240;6.002;2023-06-22T16:00:26;21.50;99.90
25951;DHT22;13748;52.240;6.002;2023-06-22T16:02:53;21.50;99.90
25951;DHT22;13748;52.240;6.002;2023-06-22T16:05:24;21.50;99.90
25951;DHT22;13748;52.240;6.002;2023-06-22T16:07:50;21.40;99.90
25951;DHT22;13748;52.240;6.002;2023-06-22T16:10:19;21.40;99.90
25951;DHT22;13748;52.240;6.002;2023-06-22T16:12:47;21.40;99.90
25951;DHT22;13748;52.240;6.002;2023-06-22T16:15:18;21.30;99.90
25951;DHT22;13748;52.240;6.002;2023-06-22T16:17:45;21.30;99.90
25951;DHT22;13748;52.240;6.002;2023-06-22T16:20:12;21.30;99.90
25951;DHT22;13748;52.240;6.002;2023-06-22T16:22:39;21.20;99.90
25951;DHT22;13748;52.240;6.002;2023-06-22T16:25:06;21.20;99.90
25951;DHT22;13748;52.240;6.002;2023-06-22T16:27:33;21.00;99.90
25951;DHT22;13748;52.240;6.002;2023-06-22T16:30:00;20.90;99.90
25951;DHT22;13748;52.240;6.002;2023-06-22T16:32:27;21.00;99.90
25951;DHT22;13748;52.240;6.002;2023-06-22T16:34:54;20.80;99.90
25951;DHT22;13748;52.240;6.002;2023-06-22T16:37:21;20.80;99.90
25951;DHT22;13748;52.240;6.002;2023-06-22T16:39:48;20.70;99.90
25951;DHT22;13748;52.240;6.002;2023-06-22T16:42:15;20.70;99.90
25951;DHT22;13748;52.240;6.002;2023-06-22T16:44:43;20.70;99.90
25951;DHT22;13748;52.240;6.002;2023-06-22T16:47:10;20.70;99.90
25951;DHT22;13748;52.240;6.002;2023-06-22T16:49:37;20.80;99.90
25951;DHT22;13748;52.240;6.002;2023-06-22T16:52:05;20.70;99.90
25951;DHT22;13748;52.240;6.002;2023-06-22T16:54:32;20.70;99.90
25951;DHT22;13748;52.240;6.002;2023-06-22T16:57:02;20.60;99.90
25951;DHT22;13748;52.240;6.002;2023-06-22T16:59:30;20.70;99.90
25951;DHT22;13748;52.240;6.002;2023-06-22T17:01:57;20.70;99.90
25951;DHT22;13748;52.240;6.002;2023-06-22T17:04:25;20.70;99.90
25951;DHT22;13748;52.240;6.002;2023-06-22T17:06:58;20.70;99.90
25951;DHT22;13748;52.240;6.002;2023-06-22T17:09:26;20.60;99.90
25951;DHT22;13748;52.240;6.002;2023-06-22T17:11:54;20.60;99.90
25951;DHT22;13748;52.240;6.002;2023-06-22T17:14:21;20.50;99.90